Portada
METAR-TAF:

METAR-TAF

Aeroports :

Mae Sot, Tailàndia

latitud: 16-40N, longitud: 098-33E, altitud: 196 m

Observació

L'informe es va fer fa 8 hores i 7 minuts, a les 08:00 UTC
Vent 8 kt del Nord-Est, variant entre Nord i Est
Temperatura 26°C
Humitat 79%
Pressió 1008 hPa
Visibilitat 10 km o més
Núvols disperses a una alçada de 3000 ft
Cel ennuvolat a una alçada de 8000 ft
xàfecs en les proximitats

METAR: VTPM 190800Z 04008KT 360V090 9999 VCSH SCT030 BKN080 26/22 Q1008 NOSIG

Hora: 23:07 (16:07 UTC)

Pronòstic

L'informe es va fer fa 11 hores i 7 minuts, a les 05:00 UTC
Pronòstic vàlid del 19 a les 06 UTC al 20 a les 06 UTC
Vent 5 kt del Est/Nord-Est
Visibilitat 10 km o més
Cel ennuvolat a una alçada de 3000 ft

TAF: VTPM 190500Z 1906/2006 07005KT 9999 BKN030

Observacions i pronòstics meteorològics de més de 4000 aeroports (METAR i TAF).

Les estacions disponibles són els punts grocs i vermells al mapa.

Posi el ratolí al punt desitjat per veure el nom de l'estació.

Feu clic per veure les observacions i els pronòstics meteorològics.

Per canviar el mapa: feu clic els botons verds amb una creu de color negre per apropar; al botó verd amb un guió per allunyar la imatge; o en les fletxes verdes per a mapes adjacents.


METAR-TAF: